createdAt,value
2018-01-27T00:01:26.200Z,26.73
2018-01-27T00:03:53.764Z,27.57
2018-01-27T00:06:21.276Z,27.17
2018-01-27T00:08:48.890Z,28.03
2018-01-27T00:11:16.421Z,27.70
2018-01-27T00:13:50.908Z,26.43
2018-01-27T00:16:18.431Z,27.20
2018-01-27T00:18:45.985Z,28.33
2018-01-27T00:21:13.529Z,27.70
2018-01-27T00:23:41.053Z,28.30
2018-01-27T00:26:08.605Z,27.87
2018-01-27T00:28:36.137Z,27.53
2018-01-27T00:31:03.698Z,29.93
2018-01-27T00:33:31.221Z,29.30
2018-01-27T00:35:58.785Z,29.07
2018-01-27T00:38:26.528Z,27.73
2018-01-27T00:40:54.099Z,28.17
2018-01-27T00:43:21.643Z,27.13
2018-01-27T00:45:49.170Z,27.23
2018-01-27T00:48:16.804Z,28.43
2018-01-27T00:50:44.449Z,28.43
2018-01-27T00:53:12.144Z,27.43
2018-01-27T00:55:39.689Z,27.73
2018-01-27T00:58:07.263Z,28.60
2018-01-27T01:00:34.824Z,28.10
2018-01-27T01:03:02.356Z,27.50
2018-01-27T01:05:29.945Z,27.80
2018-01-27T01:07:57.492Z,28.47
2018-01-27T01:10:25.169Z,29.20
2018-01-27T01:12:52.689Z,27.23
2018-01-27T01:15:20.280Z,28.23
2018-01-27T01:17:48.637Z,28.87
2018-01-27T01:20:16.224Z,29.30
2018-01-27T01:22:43.750Z,29.03
2018-01-27T01:25:11.311Z,29.43
2018-01-27T01:27:38.842Z,28.10
2018-01-27T01:30:06.465Z,28.37
2018-01-27T01:32:34.025Z,29.10
2018-01-27T01:35:01.580Z,28.73
2018-01-27T01:37:29.112Z,29.43
2018-01-27T01:39:56.640Z,28.50
2018-01-27T01:42:29.764Z,28.77
2018-01-27T01:44:57.323Z,30.40
2018-01-27T01:47:24.884Z,30.73
2018-01-27T01:49:52.475Z,31.07
2018-01-27T01:52:20.001Z,29.97
2018-01-27T01:54:47.525Z,29.60
2018-01-27T01:57:15.041Z,28.27
2018-01-27T01:59:42.553Z,29.73
2018-01-27T02:02:10.105Z,29.00
2018-01-27T02:04:37.739Z,30.37
2018-01-27T02:07:05.260Z,28.60
2018-01-27T02:09:33.378Z,31.17
2018-01-27T02:12:00.940Z,30.00
2018-01-27T02:14:28.466Z,30.73
2018-01-27T02:16:56.010Z,29.97
2018-01-27T02:19:23.534Z,29.40
2018-01-27T02:21:51.067Z,30.07
2018-01-27T02:24:18.626Z,29.53
2018-01-27T02:26:46.151Z,30.03
2018-01-27T02:29:13.680Z,29.87
2018-01-27T02:31:41.202Z,29.67
2018-01-27T02:34:08.729Z,30.20
2018-01-27T02:36:36.256Z,28.57
2018-01-27T02:39:03.780Z,29.73
2018-01-27T02:41:31.744Z,30.63
2018-01-27T02:43:59.274Z,30.50
2018-01-27T02:46:26.805Z,29.83
2018-01-27T02:48:54.432Z,31.37
2018-01-27T02:51:21.974Z,30.63
2018-01-27T02:53:49.521Z,31.60
2018-01-27T02:56:17.048Z,31.33
2018-01-27T02:58:44.625Z,29.37
2018-01-27T03:01:12.158Z,31.63
2018-01-27T03:03:39.693Z,30.53
2018-01-27T03:06:07.232Z,32.27
2018-01-27T03:08:34.809Z,29.87
2018-01-27T03:11:02.320Z,31.33
2018-01-27T03:13:29.928Z,30.23
2018-01-27T03:15:57.446Z,29.43
2018-01-27T03:18:24.980Z,30.40
2018-01-27T03:20:52.606Z,29.30
2018-01-27T03:23:20.166Z,31.03
2018-01-27T03:25:47.682Z,31.57
2018-01-27T03:28:15.241Z,30.40
2018-01-27T03:30:42.773Z,29.90
2018-01-27T03:33:10.427Z,30.07
2018-01-27T03:35:37.961Z,31.27
2018-01-27T03:38:05.486Z,30.13
2018-01-27T03:40:33.042Z,30.67
2018-01-27T03:43:00.572Z,29.77
2018-01-27T03:45:28.100Z,28.67
2018-01-27T03:47:55.621Z,29.60
2018-01-27T03:50:23.146Z,28.50
2018-01-27T03:52:50.677Z,28.80
2018-01-27T03:55:18.193Z,29.40
2018-01-27T03:57:45.726Z,29.53
2018-01-27T04:00:13.249Z,28.73
2018-01-27T04:02:40.786Z,27.90
2018-01-27T04:05:08.307Z,29.23
2018-01-27T04:07:35.862Z,28.73
2018-01-27T04:10:03.373Z,29.30
2018-01-27T04:12:30.884Z,28.60
2018-01-27T04:14:58.516Z,27.47
2018-01-27T04:17:26.045Z,26.90
2018-01-27T04:19:53.564Z,29.70
2018-01-27T04:22:21.080Z,29.00
2018-01-27T04:24:48.610Z,29.67
2018-01-27T04:27:16.137Z,30.77
2018-01-27T04:29:43.659Z,28.37
2018-01-27T04:32:11.190Z,29.47
2018-01-27T04:34:38.713Z,28.80
2018-01-27T04:37:06.354Z,28.60
2018-01-27T04:39:33.884Z,30.20
2018-01-27T04:42:01.413Z,29.90
2018-01-27T04:44:28.964Z,30.97
2018-01-27T04:46:56.476Z,31.27
2018-01-27T04:49:24.033Z,31.03
2018-01-27T04:51:51.605Z,32.20
2018-01-27T04:54:19.129Z,30.83
2018-01-27T04:56:46.660Z,32.53
2018-01-27T04:59:14.189Z,32.40
2018-01-27T05:01:41.713Z,31.47
2018-01-27T05:04:09.241Z,30.80
2018-01-27T05:06:36.762Z,34.13
2018-01-27T05:09:04.294Z,31.93
2018-01-27T05:11:31.817Z,33.17
2018-01-27T05:13:59.349Z,33.13
2018-01-27T05:16:26.870Z,32.97
2018-01-27T05:18:54.400Z,31.67
2018-01-27T05:21:21.929Z,31.83
2018-01-27T05:23:49.459Z,31.13
2018-01-27T05:26:17.438Z,31.13
2018-01-27T05:28:45.000Z,31.10
2018-01-27T05:31:12.513Z,30.43
2018-01-27T05:33:40.035Z,30.33
2018-01-27T05:36:07.684Z,29.33
2018-01-27T05:38:35.218Z,28.00
2018-01-27T05:41:02.769Z,30.73
2018-01-27T05:43:30.280Z,30.83
2018-01-27T05:45:57.797Z,32.43
2018-01-27T05:48:25.350Z,30.53
2018-01-27T05:50:52.876Z,29.33
2018-01-27T05:53:20.393Z,30.43
2018-01-27T05:55:47.970Z,28.97
2018-01-27T05:58:15.500Z,30.47
2018-01-27T06:00:43.046Z,30.97
2018-01-27T06:03:10.575Z,28.30
2018-01-27T06:05:38.106Z,31.43
2018-01-27T06:08:05.620Z,29.83
2018-01-27T06:10:33.167Z,29.53
2018-01-27T06:13:00.709Z,29.20
2018-01-27T06:15:28.243Z,29.70
2018-01-27T06:17:55.775Z,30.63
2018-01-27T06:20:23.333Z,30.03
2018-01-27T06:22:50.878Z,28.90
2018-01-27T06:25:18.402Z,31.43
2018-01-27T06:27:46.045Z,29.40
2018-01-27T06:30:13.570Z,29.70
2018-01-27T06:32:41.089Z,29.60
2018-01-27T06:35:08.718Z,30.73
2018-01-27T06:37:36.232Z,31.27
2018-01-27T06:40:03.753Z,31.77
2018-01-27T06:42:31.275Z,30.80
2018-01-27T06:44:58.790Z,31.40
2018-01-27T06:47:26.315Z,30.53
2018-01-27T06:49:53.852Z,30.37
2018-01-27T06:52:21.372Z,29.70
2018-01-27T06:54:48.892Z,30.03
2018-01-27T06:57:16.457Z,30.13
2018-01-27T06:59:43.984Z,27.73
2018-01-27T07:02:11.573Z,28.90
2018-01-27T07:04:39.091Z,29.20
2018-01-27T07:07:06.609Z,28.00
2018-01-27T07:09:34.122Z,27.50
2018-01-27T07:12:01.646Z,27.67
2018-01-27T07:14:29.175Z,26.33
2018-01-27T07:16:56.696Z,25.73
2018-01-27T07:19:24.219Z,25.13
2018-01-27T07:21:51.854Z,25.00
2018-01-27T07:24:19.373Z,23.73
2018-01-27T07:26:46.943Z,24.13
2018-01-27T07:29:14.461Z,24.63
2018-01-27T07:31:41.988Z,24.10
2018-01-27T07:34:09.506Z,22.60
2018-01-27T07:36:37.035Z,23.47
2018-01-27T07:39:04.552Z,23.90
2018-01-27T07:41:32.073Z,22.00
2018-01-27T07:43:59.686Z,21.77
2018-01-27T07:46:27.214Z,21.93
2018-01-27T07:48:54.736Z,23.00
2018-01-27T07:51:22.267Z,20.83
2018-01-27T07:53:49.821Z,20.53
2018-01-27T07:56:17.350Z,20.37
2018-01-27T07:58:44.873Z,20.90
2018-01-27T08:01:12.489Z,21.37
2018-01-27T08:03:40.001Z,21.83
2018-01-27T08:06:07.525Z,20.00
2018-01-27T08:08:35.050Z,19.73
2018-01-27T08:11:02.570Z,19.30
2018-01-27T08:13:30.084Z,19.23
2018-01-27T08:15:57.618Z,18.33
2018-01-27T08:18:25.141Z,18.67
2018-01-27T08:20:52.648Z,18.63
2018-01-27T08:23:20.229Z,17.10
2018-01-27T08:25:47.795Z,17.67
2018-01-27T08:28:15.354Z,16.97
2018-01-27T08:30:42.874Z,17.07
2018-01-27T08:33:10.398Z,17.73
2018-01-27T08:35:37.938Z,17.07
2018-01-27T08:38:05.464Z,16.17
2018-01-27T08:40:32.993Z,16.47
2018-01-27T08:43:01.911Z,16.77
2018-01-27T08:45:29.494Z,16.43
2018-01-27T08:47:57.057Z,16.37
2018-01-27T08:50:24.623Z,16.37
2018-01-27T08:52:52.180Z,15.70
2018-01-27T08:55:19.733Z,16.80
2018-01-27T08:57:47.297Z,16.77
2018-01-27T10:16:11.827Z,11.33
2018-01-27T10:18:39.339Z,12.30
2018-01-27T10:21:06.945Z,12.80
2018-01-27T10:23:34.469Z,11.83
2018-01-27T10:26:02.016Z,12.73
2018-01-27T10:28:29.559Z,11.83
2018-01-27T10:30:57.185Z,14.47
2018-01-27T10:33:24.734Z,13.33
2018-01-27T10:35:52.273Z,13.00
2018-01-27T10:38:19.790Z,13.97
2018-01-27T10:40:47.317Z,12.57
2018-01-27T10:43:14.850Z,13.07
2018-01-27T10:45:42.393Z,13.33
2018-01-27T10:48:09.913Z,13.30
2018-01-27T10:50:37.446Z,13.33
2018-01-27T10:53:05.018Z,14.00
2018-01-27T10:55:32.538Z,13.33
2018-01-27T10:58:00.139Z,13.70
2018-01-27T11:00:27.660Z,13.90
2018-01-27T11:02:55.246Z,14.63
2018-01-27T11:05:22.818Z,14.07
2018-01-27T11:07:50.509Z,13.13
2018-01-27T11:10:18.142Z,14.40
2018-01-27T11:12:45.669Z,14.27
2018-01-27T11:15:13.191Z,14.43
2018-01-27T11:17:40.715Z,14.67
2018-01-27T11:20:08.241Z,14.43
2018-01-27T11:22:35.782Z,14.47
2018-01-27T11:25:03.306Z,15.13
2018-01-27T11:27:30.817Z,14.73
2018-01-27T11:29:58.426Z,14.87
2018-01-27T11:32:25.949Z,14.53
2018-01-27T11:34:53.547Z,14.83
2018-01-27T11:37:21.070Z,14.50
2018-01-27T11:39:48.606Z,14.50
2018-01-27T11:42:16.134Z,14.90
2018-01-27T11:44:43.660Z,15.20
2018-01-27T11:47:11.340Z,15.13
2018-01-27T11:49:38.866Z,14.70
2018-01-27T11:52:06.392Z,13.83
2018-01-27T11:54:34.017Z,14.40
2018-01-27T11:57:01.550Z,13.93
2018-01-27T11:59:29.070Z,15.23
2018-01-27T12:01:56.595Z,14.00
2018-01-27T12:04:24.113Z,14.30
2018-01-27T12:06:51.673Z,14.77
2018-01-27T12:09:19.197Z,14.93
2018-01-27T12:11:46.722Z,14.63
2018-01-27T12:14:14.244Z,15.17
2018-01-27T12:16:41.799Z,14.80
2018-01-27T12:19:09.330Z,15.60
2018-01-27T12:21:36.859Z,15.10
2018-01-27T12:24:04.384Z,15.70
2018-01-27T12:26:31.951Z,15.90
2018-01-27T12:28:59.486Z,15.73
2018-01-27T12:31:27.014Z,15.53
2018-01-27T12:33:54.530Z,15.10
2018-01-27T12:36:22.063Z,16.77
2018-01-27T12:38:49.582Z,16.17
2018-01-27T12:41:17.113Z,16.30
2018-01-27T12:43:44.653Z,16.23
2018-01-27T12:46:12.177Z,15.20
2018-01-27T12:48:39.722Z,16.43
2018-01-27T12:51:07.244Z,15.50
2018-01-27T12:53:34.791Z,16.20
2018-01-27T12:56:02.315Z,16.07
2018-01-27T12:58:29.847Z,17.23
2018-01-27T13:00:57.358Z,17.13
2018-01-27T13:03:24.981Z,16.23
2018-01-27T13:05:52.510Z,16.57
2018-01-27T13:08:20.098Z,15.77
2018-01-27T13:10:47.621Z,15.00
2018-01-27T13:13:15.224Z,14.57
2018-01-27T13:15:42.883Z,13.70
2018-01-27T13:18:10.410Z,13.60
2018-01-27T13:20:37.942Z,12.03
2018-01-27T13:23:05.558Z,11.03
2018-01-27T13:25:33.130Z,12.10
2018-01-27T13:28:00.650Z,12.80
2018-01-27T13:30:28.180Z,12.60
2018-01-27T13:32:55.810Z,11.23
2018-01-27T13:35:23.360Z,10.80
2018-01-27T13:37:50.949Z,11.97
2018-01-27T13:40:18.479Z,11.50
2018-01-27T13:42:46.051Z,12.73
2018-01-27T13:45:13.575Z,11.83
2018-01-27T13:47:41.164Z,10.67
2018-01-27T13:50:08.690Z,10.83
2018-01-27T13:52:36.214Z,10.70
2018-01-27T13:55:03.742Z,10.30
2018-01-27T13:57:31.274Z,10.40
2018-01-27T13:59:58.864Z,9.47
2018-01-27T14:02:26.411Z,11.50
2018-01-27T14:04:53.945Z,10.67
2018-01-27T14:07:21.468Z,10.93
2018-01-27T14:09:48.989Z,11.23
2018-01-27T14:12:16.559Z,11.70
2018-01-27T14:14:44.124Z,11.07
2018-01-27T14:17:11.651Z,11.40
2018-01-27T14:19:39.176Z,11.00
2018-01-27T14:22:06.800Z,11.30
2018-01-27T14:24:34.354Z,11.43
2018-01-27T14:27:01.877Z,12.07
2018-01-27T14:29:29.452Z,11.60
2018-01-27T14:31:56.982Z,11.50
2018-01-27T14:34:24.570Z,10.43
2018-01-27T14:36:52.081Z,11.97
2018-01-27T14:39:19.721Z,12.03
2018-01-27T14:41:47.245Z,11.50
2018-01-27T14:44:14.842Z,12.17
2018-01-27T14:46:42.373Z,12.97
2018-01-27T14:49:09.924Z,13.80
2018-01-27T14:51:37.530Z,13.17
2018-01-27T14:54:05.052Z,14.40
2018-01-27T14:56:32.577Z,13.20
2018-01-27T14:59:00.206Z,13.80
2018-01-27T15:01:27.730Z,17.52
2018-01-27T15:03:55.329Z,14.03
2018-01-27T15:06:22.844Z,13.87
2018-01-27T15:08:50.423Z,14.77
2018-01-27T15:11:17.937Z,13.60
2018-01-27T15:13:45.561Z,15.10
2018-01-27T15:16:13.085Z,15.47
2018-01-27T15:18:40.608Z,17.58
2018-01-27T15:21:08.133Z,15.87
2018-01-27T15:23:35.702Z,15.27
2018-01-27T15:26:03.226Z,16.10
2018-01-27T15:28:30.806Z,15.30
2018-01-27T15:30:58.333Z,15.83
2018-01-27T15:33:25.860Z,16.37
2018-01-27T15:35:53.494Z,15.23
2018-01-27T15:38:21.017Z,15.40
2018-01-27T15:40:48.554Z,16.90
2018-01-27T15:43:16.158Z,17.17
2018-01-27T15:45:43.734Z,17.80
2018-01-27T15:48:11.259Z,16.23
2018-01-27T15:50:38.903Z,15.40
2018-01-27T15:53:06.527Z,15.87
2018-01-27T15:55:34.045Z,15.27
2018-01-27T15:58:01.590Z,14.87
2018-01-27T16:00:29.115Z,16.03
2018-01-27T16:02:56.648Z,16.27
2018-01-27T16:05:24.173Z,16.23
2018-01-27T16:07:51.718Z,16.80
2018-01-27T16:10:19.313Z,15.23
2018-01-27T16:12:46.842Z,16.43
2018-01-27T16:15:14.368Z,16.10
2018-01-27T16:17:41.910Z,16.60
2018-01-27T16:20:09.444Z,16.47
2018-01-27T16:22:37.031Z,17.83
2018-01-27T16:25:04.570Z,16.63
2018-01-27T16:27:32.160Z,17.00
2018-01-27T16:29:59.378Z,15.70
2018-01-27T16:32:26.964Z,16.70
2018-01-27T16:34:54.555Z,16.43
2018-01-27T16:37:22.073Z,20.67
2018-01-27T16:39:49.638Z,18.67
2018-01-27T16:42:17.161Z,17.57
2018-01-27T16:44:44.694Z,17.53
2018-01-27T16:47:12.218Z,17.83
2018-01-27T16:49:39.739Z,18.00
2018-01-27T16:52:07.336Z,18.20
2018-01-27T16:54:34.907Z,17.10
2018-01-27T16:57:02.465Z,20.43
2018-01-27T16:59:29.985Z,20.20
2018-01-27T17:01:57.585Z,20.53
2018-01-27T17:04:25.157Z,19.63
2018-01-27T17:06:52.701Z,20.03
2018-01-27T17:09:20.221Z,19.50
2018-01-27T17:11:47.762Z,18.40
2018-01-27T17:14:15.389Z,18.83
2018-01-27T17:16:42.922Z,19.03
2018-01-27T17:19:10.509Z,19.43
2018-01-27T17:21:38.042Z,20.57
2018-01-27T17:24:05.613Z,20.93
2018-01-27T17:26:33.131Z,19.27
2018-01-27T17:29:00.659Z,20.43
2018-01-27T17:31:28.192Z,20.03
2018-01-27T17:33:55.712Z,20.63
2018-01-27T17:36:23.231Z,20.70
2018-01-27T17:38:50.759Z,20.43
2018-01-27T17:41:18.338Z,21.97
2018-01-27T17:43:45.906Z,20.97
2018-01-27T17:46:13.442Z,21.57
2018-01-27T17:48:41.027Z,21.27
2018-01-27T17:51:08.553Z,21.77
2018-01-27T17:53:36.076Z,21.30
2018-01-27T17:56:03.605Z,21.80
2018-01-27T17:58:31.130Z,20.60
2018-01-27T18:00:58.649Z,21.13
2018-01-27T18:03:26.183Z,21.47
2018-01-27T18:05:53.725Z,21.20
2018-01-27T18:08:21.273Z,20.97
2018-01-27T18:10:48.815Z,22.30
2018-01-27T18:13:16.412Z,22.03
2018-01-27T18:15:43.928Z,22.50
2018-01-27T18:18:11.462Z,21.63
2018-01-27T18:20:39.022Z,20.87
2018-01-27T18:23:06.560Z,22.43
2018-01-27T18:25:34.083Z,21.97
2018-01-27T18:28:01.664Z,22.00
2018-01-27T18:30:29.205Z,22.03
2018-01-27T18:32:56.733Z,22.40
2018-01-27T18:35:24.259Z,23.63
2018-01-27T18:37:51.815Z,23.00
2018-01-27T18:40:19.342Z,23.23
2018-01-27T18:42:46.887Z,24.13
2018-01-27T18:45:14.488Z,24.40
2018-01-27T18:47:42.020Z,25.43
2018-01-27T18:50:09.544Z,22.77
2018-01-27T18:52:37.078Z,23.73
2018-01-27T18:55:04.606Z,26.20
2018-01-27T18:57:32.120Z,25.40
2018-01-27T18:59:59.860Z,24.53
2018-01-27T19:02:27.515Z,25.47
2018-01-27T19:04:55.042Z,25.27
2018-01-27T19:07:22.630Z,25.80
2018-01-27T19:09:50.404Z,25.93
2018-01-27T19:12:17.949Z,26.13
2018-01-27T19:14:45.726Z,25.87
2018-01-27T19:17:13.269Z,25.53
2018-01-27T19:19:40.796Z,26.33
2018-01-27T19:22:08.320Z,25.47
2018-01-27T19:24:35.849Z,25.90
2018-01-27T19:27:03.400Z,25.33
2018-01-27T19:29:30.917Z,26.33
2018-01-27T19:31:58.435Z,25.37
2018-01-27T19:34:25.959Z,25.47
2018-01-27T19:36:53.554Z,25.63
2018-01-27T19:39:21.091Z,26.37
2018-01-27T19:41:48.616Z,25.40
2018-01-27T19:44:16.141Z,25.87
2018-01-27T19:46:43.664Z,24.83
2018-01-27T19:49:11.185Z,26.60
2018-01-27T19:51:38.710Z,25.87
2018-01-27T19:54:06.230Z,25.83
2018-01-27T19:56:33.901Z,24.63
2018-01-27T19:59:01.431Z,25.87
2018-01-27T20:01:28.973Z,25.30
2018-01-27T20:03:56.617Z,26.07
2018-01-27T20:06:24.144Z,25.33
2018-01-27T20:08:51.733Z,25.33
2018-01-27T20:11:19.401Z,25.10
2018-01-27T20:13:46.962Z,25.47
2018-01-27T20:16:14.519Z,25.27
2018-01-27T20:18:42.075Z,26.07
2018-01-27T20:21:09.600Z,26.47
2018-01-27T20:23:37.152Z,28.20
2018-01-27T20:26:04.683Z,27.13
2018-01-27T20:28:32.200Z,28.00
2018-01-27T20:30:59.726Z,26.77
2018-01-27T20:33:27.288Z,27.97
2018-01-27T20:35:54.810Z,26.43
2018-01-27T20:38:22.333Z,28.43
2018-01-27T20:40:49.873Z,28.30
2018-01-27T20:43:17.399Z,28.27
2018-01-27T20:45:44.929Z,28.47
2018-01-27T20:48:12.491Z,28.43
2018-01-27T20:50:40.021Z,27.60
2018-01-27T20:53:07.549Z,28.57
2018-01-27T20:55:35.174Z,27.63
2018-01-27T20:58:02.705Z,28.17
2018-01-27T21:00:30.228Z,28.17
2018-01-27T21:02:57.773Z,30.33
2018-01-27T21:05:25.372Z,30.47
2018-01-27T21:07:52.940Z,30.77
2018-01-27T21:10:20.484Z,29.50
2018-01-27T21:12:48.008Z,30.83
2018-01-27T21:15:15.640Z,28.57
2018-01-27T21:17:43.164Z,28.90
2018-01-27T21:20:10.693Z,29.93
2018-01-27T21:22:38.213Z,28.87
2018-01-27T21:25:05.752Z,29.90
2018-01-27T21:27:33.296Z,31.43
2018-01-27T21:30:00.814Z,29.17
2018-01-27T21:32:28.335Z,28.93
2018-01-27T21:34:55.877Z,30.47
2018-01-27T21:37:23.488Z,30.33
2018-01-27T21:39:51.006Z,32.00
2018-01-27T21:42:18.520Z,31.07
2018-01-27T21:44:46.043Z,30.43
2018-01-27T21:47:13.572Z,29.53
2018-01-27T21:49:41.097Z,30.67
2018-01-27T21:52:08.649Z,30.97
2018-01-27T21:54:36.170Z,30.63
2018-01-27T21:57:03.792Z,29.27
2018-01-27T21:59:31.306Z,28.83
2018-01-27T22:01:58.852Z,29.07
2018-01-27T22:04:26.369Z,29.17
2018-01-27T22:06:53.897Z,27.60
2018-01-27T22:09:21.427Z,28.70
2018-01-27T22:11:48.948Z,27.23
2018-01-27T22:14:16.479Z,26.67
2018-01-27T22:16:44.038Z,26.77
2018-01-27T22:19:11.565Z,26.03
2018-01-27T22:21:39.096Z,26.50
2018-01-27T22:24:06.729Z,25.07
2018-01-27T22:26:34.284Z,25.27
2018-01-27T22:29:01.821Z,25.13
2018-01-27T22:31:29.341Z,25.57
2018-01-27T22:33:56.890Z,24.80
2018-01-27T22:36:24.522Z,24.53
2018-01-27T22:38:52.039Z,24.67
2018-01-27T22:41:19.604Z,23.97
2018-01-27T22:43:47.124Z,25.03
2018-01-27T22:46:14.736Z,24.90
2018-01-27T22:48:42.251Z,24.63
2018-01-27T22:51:09.782Z,29.50
2018-01-27T22:53:37.341Z,24.97
2018-01-27T22:56:04.940Z,24.77
2018-01-27T22:58:32.460Z,24.13
2018-01-27T23:01:05.538Z,23.57
2018-01-27T23:03:33.106Z,23.30
2018-01-27T23:06:00.628Z,23.53
2018-01-27T23:08:28.181Z,23.57
2018-01-27T23:10:55.705Z,22.10
2018-01-27T23:13:23.230Z,21.97
2018-01-27T23:15:53.711Z,22.93
2018-01-27T23:18:21.274Z,22.43
2018-01-27T23:20:48.804Z,22.23
2018-01-27T23:23:16.676Z,22.73
2018-01-27T23:25:44.377Z,20.00
2018-01-27T23:28:11.977Z,20.23
2018-01-27T23:30:39.501Z,21.57
2018-01-27T23:33:07.043Z,19.57
2018-01-27T23:35:34.556Z,19.43
2018-01-27T23:38:02.108Z,18.93
2018-01-27T23:40:29.681Z,18.93
2018-01-27T23:42:57.236Z,17.80
2018-01-27T23:45:24.800Z,18.60
2018-01-27T23:47:52.325Z,16.50
2018-01-27T23:50:19.845Z,17.40
2018-01-27T23:52:47.455Z,15.67
2018-01-27T23:55:15.043Z,17.17
2018-01-27T23:57:42.600Z,15.63
